バクー の空港の天気 - METARとTAF

ヘイダル・アリエフ国際空港(バクー) ( UBBB / BAK ) - アゼルバイジャン バクー
飛行場実況気象(Metar)
観測時間04/27 08:30 AZT (04/27 04:30 UTC)
風向・風速南南東 3m/s
視程10km以上
天気現象
なし
気温18℃
湿度68%
気圧1019hPa
METARUBBB 270430Z 16005KT CAVOK 18/12 Q1019 R88/D NOSIG
過去の天気等 Google飛行場航空写真 Wunderground天気予報

過去48時間のMETAR

飛行場予報(TAF)
発表時間: 4/27 03:07 AZT (4/26 23:07 UTC)
予報対象時間: 27日4時 AZT ~ 28日4時 AZT
風向・風速南南東 4m/s
視程2,000m
天気現象もや
全天の4割程度の雲 雲底高度 120m
27日4時 AZT ~ 27日8時 AZT に一時的に
風向・風速不定 2m/s
視程600m
天気現象
全天の8割程度の雲 雲底高度 60m
27日8時 AZT ~ 27日10時 AZT に徐々に
視程10km以上
天気現象運行に影響にある天気現象が終了
全天の4割程度の雲 雲底高度 610m
TAF UBBB 262307Z 2700/2724 16008KT 2000 BR SCT004 TX22/2711Z TN09/2703Z
TEMPO 2700/2704 VRB04KT 0600 FG BKN002
BECMG 2704/2706 9999 NSW SCT020